Halesowen, United Kingdom
Current Conditions -  °F | °C
As of 5:20 AM on Friday 31 Oct 2014 (Local Time) from EGBB Reporting Station
Haze Haze  
Wind Chill: 59°   Ceiling: 700
Heat Index: 59°   Visibility: 2.8mi
Dew Point: 57°   Wind: 5mph
Humidity: 94%   Direction: 180°S
Pressure: 29.97"   Gusts: NA
Location:  52.45°N, 2.05°W
Report Text: EGBB 310520Z 18004KT 140V220 4600 HZ BKN007 BKN011 15/14 Q1015
Loading
Personal Weather Stations






























Interactive Weather Map
Tropical Storm Tracking
New forecast layout! Learn more

10-Day Weather Forecast

Advertisements
Track Severe Weather on mobile